sensor_id;sensor_type;location;lat;lon;timestamp;temperature;humidity
21906;DHT22;11117;48.644;9.006;2022-09-28T00:01:37;9.30;99.90
21906;DHT22;11117;48.644;9.006;2022-09-28T00:04:03;9.30;99.90
21906;DHT22;11117;48.644;9.006;2022-09-28T00:06:29;9.20;99.90
21906;DHT22;11117;48.644;9.006;2022-09-28T00:08:55;9.20;99.90
21906;DHT22;11117;48.644;9.006;2022-09-28T00:11:22;9.20;99.90
21906;DHT22;11117;48.644;9.006;2022-09-28T00:13:52;9.20;99.90
21906;DHT22;11117;48.644;9.006;2022-09-28T00:16:26;9.20;99.90
21906;DHT22;11117;48.644;9.006;2022-09-28T00:18:52;9.20;99.90
21906;DHT22;11117;48.644;9.006;2022-09-28T00:21:21;9.30;99.90
21906;DHT22;11117;48.644;9.006;2022-09-28T00:23:46;9.30;99.90
21906;DHT22;11117;48.644;9.006;2022-09-28T00:26:12;9.30;99.90
21906;DHT22;11117;48.644;9.006;2022-09-28T00:28:37;9.40;99.90
21906;DHT22;11117;48.644;9.006;2022-09-28T00:31:03;9.40;99.90
21906;DHT22;11117;48.644;9.006;2022-09-28T00:33:29;9.40;99.90
21906;DHT22;11117;48.644;9.006;2022-09-28T00:35:57;9.40;99.90
21906;DHT22;11117;48.644;9.006;2022-09-28T00:38:29;9.40;99.90
21906;DHT22;11117;48.644;9.006;2022-09-28T00:40:55;9.50;99.90
21906;DHT22;11117;48.644;9.006;2022-09-28T00:43:22;9.50;99.90
21906;DHT22;11117;48.644;9.006;2022-09-28T00:45:59;9.50;99.90
21906;DHT22;11117;48.644;9.006;2022-09-28T00:48:30;9.50;99.90
21906;DHT22;11117;48.644;9.006;2022-09-28T00:50:58;9.50;99.90
21906;DHT22;11117;48.644;9.006;2022-09-28T00:53:30;9.50;99.90
21906;DHT22;11117;48.644;9.006;2022-09-28T00:56:18;9.50;99.90
21906;DHT22;11117;48.644;9.006;2022-09-28T00:58:47;9.60;99.90
21906;DHT22;11117;48.644;9.006;2022-09-28T01:01:15;9.50;99.90
21906;DHT22;11117;48.644;9.006;2022-09-28T01:03:40;9.60;99.90
21906;DHT22;11117;48.644;9.006;2022-09-28T01:06:06;9.50;99.90
21906;DHT22;11117;48.644;9.006;2022-09-28T01:08:33;9.60;99.90
21906;DHT22;11117;48.644;9.006;2022-09-28T01:11:00;9.60;99.90
21906;DHT22;11117;48.644;9.006;2022-09-28T01:13:26;9.60;99.90
21906;DHT22;11117;48.644;9.006;2022-09-28T01:21:21;9.70;99.90
21906;DHT22;11117;48.644;9.006;2022-09-28T01:24:42;9.60;99.90
21906;DHT22;11117;48.644;9.006;2022-09-28T01:31:54;9.70;99.90
21906;DHT22;11117;48.644;9.006;2022-09-28T01:34:30;9.70;99.90
21906;DHT22;11117;48.644;9.006;2022-09-28T01:37:00;9.70;99.90
21906;DHT22;11117;48.644;9.006;2022-09-28T01:39:44;9.70;99.90
21906;DHT22;11117;48.644;9.006;2022-09-28T01:42:18;9.70;99.90
21906;DHT22;11117;48.644;9.006;2022-09-28T01:44:47;9.80;99.90
21906;DHT22;11117;48.644;9.006;2022-09-28T01:47:18;9.70;99.90
21906;DHT22;11117;48.644;9.006;2022-09-28T01:49:56;9.70;99.90
21906;DHT22;11117;48.644;9.006;2022-09-28T01:52:30;9.80;99.90
21906;DHT22;11117;48.644;9.006;2022-09-28T01:57:41;9.80;99.90
21906;DHT22;11117;48.644;9.006;2022-09-28T02:00:15;9.80;99.90
21906;DHT22;11117;48.644;9.006;2022-09-28T02:05:51;9.80;99.90
21906;DHT22;11117;48.644;9.006;2022-09-28T02:08:28;9.70;99.90
21906;DHT22;11117;48.644;9.006;2022-09-28T02:11:12;9.70;99.90
21906;DHT22;11117;48.644;9.006;2022-09-28T02:13:41;9.70;99.90
21906;DHT22;11117;48.644;9.006;2022-09-28T02:16:17;9.60;99.90
21906;DHT22;11117;48.644;9.006;2022-09-28T02:18:44;9.70;99.90
21906;DHT22;11117;48.644;9.006;2022-09-28T02:21:14;9.60;99.90
21906;DHT22;11117;48.644;9.006;2022-09-28T02:23:51;9.70;99.90
21906;DHT22;11117;48.644;9.006;2022-09-28T02:26:22;9.70;99.90
21906;DHT22;11117;48.644;9.006;2022-09-28T02:28:49;9.70;99.90
21906;DHT22;11117;48.644;9.006;2022-09-28T02:31:14;9.80;99.90
21906;DHT22;11117;48.644;9.006;2022-09-28T02:33:45;9.70;99.90
21906;DHT22;11117;48.644;9.006;2022-09-28T02:36:11;9.70;99.90
21906;DHT22;11117;48.644;9.006;2022-09-28T02:38:40;9.70;99.90
21906;DHT22;11117;48.644;9.006;2022-09-28T02:41:45;9.70;99.90
21906;DHT22;11117;48.644;9.006;2022-09-28T02:56:18;9.90;99.90
21906;DHT22;11117;48.644;9.006;2022-09-28T03:02:00;9.80;99.90
21906;DHT22;11117;48.644;9.006;2022-09-28T03:06:59;9.90;99.90
21906;DHT22;11117;48.644;9.006;2022-09-28T03:09:32;9.90;99.90
21906;DHT22;11117;48.644;9.006;2022-09-28T03:12:07;9.90;99.90
21906;DHT22;11117;48.644;9.006;2022-09-28T03:14:33;9.90;99.90
21906;DHT22;11117;48.644;9.006;2022-09-28T03:16:59;10.00;99.90
21906;DHT22;11117;48.644;9.006;2022-09-28T03:19:30;10.00;99.90
21906;DHT22;11117;48.644;9.006;2022-09-28T03:21:56;10.00;99.90
21906;DHT22;11117;48.644;9.006;2022-09-28T03:24:22;10.00;99.90
21906;DHT22;11117;48.644;9.006;2022-09-28T03:26:50;10.00;99.90
21906;DHT22;11117;48.644;9.006;2022-09-28T03:29:15;10.00;99.90
21906;DHT22;11117;48.644;9.006;2022-09-28T03:31:41;10.00;99.90
21906;DHT22;11117;48.644;9.006;2022-09-28T03:34:07;10.00;99.90
21906;DHT22;11117;48.644;9.006;2022-09-28T03:36:32;10.00;99.90
21906;DHT22;11117;48.644;9.006;2022-09-28T03:39:00;10.00;99.90
21906;DHT22;11117;48.644;9.006;2022-09-28T03:41:26;10.00;99.90
21906;DHT22;11117;48.644;9.006;2022-09-28T03:43:52;10.00;99.90
21906;DHT22;11117;48.644;9.006;2022-09-28T03:46:18;10.00;99.90
21906;DHT22;11117;48.644;9.006;2022-09-28T03:48:43;10.10;99.90
21906;DHT22;11117;48.644;9.006;2022-09-28T03:51:10;10.10;99.90
21906;DHT22;11117;48.644;9.006;2022-09-28T03:53:36;10.10;99.90
21906;DHT22;11117;48.644;9.006;2022-09-28T03:56:07;10.20;99.90
21906;DHT22;11117;48.644;9.006;2022-09-28T03:58:32;10.10;99.90
21906;DHT22;11117;48.644;9.006;2022-09-28T04:01:03;10.20;99.90
21906;DHT22;11117;48.644;9.006;2022-09-28T04:03:31;10.20;99.90
21906;DHT22;11117;48.644;9.006;2022-09-28T04:05:57;10.20;99.90
21906;DHT22;11117;48.644;9.006;2022-09-28T04:08:23;10.20;99.90
21906;DHT22;11117;48.644;9.006;2022-09-28T04:10:48;10.20;99.90
21906;DHT22;11117;48.644;9.006;2022-09-28T04:13:14;10.20;99.90
21906;DHT22;11117;48.644;9.006;2022-09-28T04:15:39;10.30;99.90
21906;DHT22;11117;48.644;9.006;2022-09-28T04:18:11;10.20;99.90
21906;DHT22;11117;48.644;9.006;2022-09-28T04:20:37;10.20;99.90
21906;DHT22;11117;48.644;9.006;2022-09-28T04:23:03;10.20;99.90
21906;DHT22;11117;48.644;9.006;2022-09-28T04:25:29;10.20;99.90
21906;DHT22;11117;48.644;9.006;2022-09-28T04:27:54;10.20;99.90
21906;DHT22;11117;48.644;9.006;2022-09-28T04:30:20;10.20;99.90
21906;DHT22;11117;48.644;9.006;2022-09-28T04:32:46;10.20;99.90
21906;DHT22;11117;48.644;9.006;2022-09-28T04:35:11;10.20;99.90
21906;DHT22;11117;48.644;9.006;2022-09-28T04:37:37;10.10;99.90
21906;DHT22;11117;48.644;9.006;2022-09-28T04:40:03;10.00;99.90
21906;DHT22;11117;48.644;9.006;2022-09-28T04:42:28;9.90;99.90
21906;DHT22;11117;48.644;9.006;2022-09-28T04:44:54;9.80;99.90
21906;DHT22;11117;48.644;9.006;2022-09-28T04:47:23;9.70;99.90
21906;DHT22;11117;48.644;9.006;2022-09-28T04:49:56;9.60;99.90
21906;DHT22;11117;48.644;9.006;2022-09-28T04:52:24;9.70;99.90
21906;DHT22;11117;48.644;9.006;2022-09-28T04:54:50;9.80;99.90
21906;DHT22;11117;48.644;9.006;2022-09-28T04:57:16;9.60;99.90
21906;DHT22;11117;48.644;9.006;2022-09-28T04:59:41;9.30;99.90
21906;DHT22;11117;48.644;9.006;2022-09-28T05:02:07;9.20;99.90
21906;DHT22;11117;48.644;9.006;2022-09-28T05:04:33;9.10;99.90
21906;DHT22;11117;48.644;9.006;2022-09-28T05:06:58;9.10;99.90
21906;DHT22;11117;48.644;9.006;2022-09-28T05:09:24;9.10;99.90
21906;DHT22;11117;48.644;9.006;2022-09-28T05:11:53;9.10;99.90
21906;DHT22;11117;48.644;9.006;2022-09-28T05:14:19;9.00;99.90
21906;DHT22;11117;48.644;9.006;2022-09-28T05:16:44;8.80;99.90
21906;DHT22;11117;48.644;9.006;2022-09-28T05:19:10;8.70;99.90
21906;DHT22;11117;48.644;9.006;2022-09-28T05:21:39;8.70;99.90
21906;DHT22;11117;48.644;9.006;2022-09-28T05:24:07;8.70;99.90
21906;DHT22;11117;48.644;9.006;2022-09-28T05:26:35;8.70;99.90
21906;DHT22;11117;48.644;9.006;2022-09-28T05:29:01;8.70;99.90
21906;DHT22;11117;48.644;9.006;2022-09-28T05:31:26;8.60;99.90
21906;DHT22;11117;48.644;9.006;2022-09-28T05:33:52;8.60;99.90
21906;DHT22;11117;48.644;9.006;2022-09-28T05:36:18;8.50;99.90
21906;DHT22;11117;48.644;9.006;2022-09-28T05:38:44;8.50;99.90
21906;DHT22;11117;48.644;9.006;2022-09-28T05:41:10;8.50;99.90
21906;DHT22;11117;48.644;9.006;2022-09-28T05:43:36;8.40;99.90
21906;DHT22;11117;48.644;9.006;2022-09-28T05:46:01;8.50;99.90
21906;DHT22;11117;48.644;9.006;2022-09-28T05:48:27;8.50;99.90
21906;DHT22;11117;48.644;9.006;2022-09-28T05:50:53;8.50;99.90
21906;DHT22;11117;48.644;9.006;2022-09-28T05:53:19;8.50;99.90
21906;DHT22;11117;48.644;9.006;2022-09-28T05:55:45;8.50;99.90
21906;DHT22;11117;48.644;9.006;2022-09-28T05:58:10;8.40;99.90
21906;DHT22;11117;48.644;9.006;2022-09-28T06:00:36;8.40;99.90
21906;DHT22;11117;48.644;9.006;2022-09-28T06:03:05;8.40;99.90
21906;DHT22;11117;48.644;9.006;2022-09-28T06:05:33;8.40;99.90
21906;DHT22;11117;48.644;9.006;2022-09-28T06:07:59;8.40;99.90
21906;DHT22;11117;48.644;9.006;2022-09-28T06:10:26;8.50;99.90
21906;DHT22;11117;48.644;9.006;2022-09-28T06:12:56;8.50;99.90
21906;DHT22;11117;48.644;9.006;2022-09-28T06:15:27;8.50;99.90
21906;DHT22;11117;48.644;9.006;2022-09-28T06:20:31;8.50;99.90
21906;DHT22;11117;48.644;9.006;2022-09-28T06:22:57;8.50;99.90
21906;DHT22;11117;48.644;9.006;2022-09-28T06:25:23;8.50;99.90
21906;DHT22;11117;48.644;9.006;2022-09-28T06:28:00;8.60;99.90
21906;DHT22;11117;48.644;9.006;2022-09-28T06:30:27;8.70;99.90
21906;DHT22;11117;48.644;9.006;2022-09-28T06:32:54;8.70;99.90
21906;DHT22;11117;48.644;9.006;2022-09-28T06:35:21;8.80;99.90
21906;DHT22;11117;48.644;9.006;2022-09-28T06:37:47;8.80;99.90
21906;DHT22;11117;48.644;9.006;2022-09-28T06:40:13;8.90;99.90
21906;DHT22;11117;48.644;9.006;2022-09-28T06:42:38;8.90;99.90
21906;DHT22;11117;48.644;9.006;2022-09-28T06:45:04;9.00;99.90
21906;DHT22;11117;48.644;9.006;2022-09-28T06:47:30;9.10;99.90
21906;DHT22;11117;48.644;9.006;2022-09-28T06:49:55;9.10;99.90
21906;DHT22;11117;48.644;9.006;2022-09-28T06:52:21;9.20;99.90
21906;DHT22;11117;48.644;9.006;2022-09-28T06:54:46;9.20;99.90
21906;DHT22;11117;48.644;9.006;2022-09-28T06:57:12;9.20;99.90
21906;DHT22;11117;48.644;9.006;2022-09-28T06:59:37;9.20;99.90
21906;DHT22;11117;48.644;9.006;2022-09-28T07:02:03;9.30;99.90
21906;DHT22;11117;48.644;9.006;2022-09-28T07:04:29;9.40;99.90
21906;DHT22;11117;48.644;9.006;2022-09-28T07:06:54;9.50;99.90
21906;DHT22;11117;48.644;9.006;2022-09-28T07:09:20;9.60;99.90
21906;DHT22;11117;48.644;9.006;2022-09-28T07:11:45;9.50;99.90
21906;DHT22;11117;48.644;9.006;2022-09-28T07:14:11;9.60;99.90
21906;DHT22;11117;48.644;9.006;2022-09-28T07:16:36;9.70;99.90
21906;DHT22;11117;48.644;9.006;2022-09-28T07:19:02;9.80;99.90
21906;DHT22;11117;48.644;9.006;2022-09-28T07:21:28;9.80;99.90
21906;DHT22;11117;48.644;9.006;2022-09-28T07:23:53;9.90;99.90
21906;DHT22;11117;48.644;9.006;2022-09-28T07:26:19;10.00;99.90
21906;DHT22;11117;48.644;9.006;2022-09-28T07:28:44;9.90;99.90
21906;DHT22;11117;48.644;9.006;2022-09-28T07:31:10;10.00;99.90
21906;DHT22;11117;48.644;9.006;2022-09-28T07:33:35;10.10;99.90
21906;DHT22;11117;48.644;9.006;2022-09-28T07:36:01;9.90;99.90
21906;DHT22;11117;48.644;9.006;2022-09-28T07:38:26;9.70;99.90
21906;DHT22;11117;48.644;9.006;2022-09-28T07:40:52;9.80;99.90
21906;DHT22;11117;48.644;9.006;2022-09-28T07:43:18;9.50;99.90
21906;DHT22;11117;48.644;9.006;2022-09-28T07:45:44;9.30;99.90
21906;DHT22;11117;48.644;9.006;2022-09-28T07:48:10;9.20;99.90
21906;DHT22;11117;48.644;9.006;2022-09-28T07:50:35;9.10;99.90
21906;DHT22;11117;48.644;9.006;2022-09-28T07:53:01;9.10;99.90
21906;DHT22;11117;48.644;9.006;2022-09-28T07:55:26;9.20;99.90
21906;DHT22;11117;48.644;9.006;2022-09-28T07:57:58;9.20;99.90
21906;DHT22;11117;48.644;9.006;2022-09-28T08:00:24;9.20;99.90
21906;DHT22;11117;48.644;9.006;2022-09-28T08:02:49;9.20;99.90
21906;DHT22;11117;48.644;9.006;2022-09-28T08:05:15;9.20;99.90
21906;DHT22;11117;48.644;9.006;2022-09-28T08:07:42;9.20;99.90
21906;DHT22;11117;48.644;9.006;2022-09-28T08:10:08;9.30;99.90
21906;DHT22;11117;48.644;9.006;2022-09-28T08:31:28;10.00;99.90
21906;DHT22;11117;48.644;9.006;2022-09-28T08:33:53;10.00;99.90
21906;DHT22;11117;48.644;9.006;2022-09-28T08:36:19;10.20;99.90
21906;DHT22;11117;48.644;9.006;2022-09-28T08:38:45;10.40;99.90
21906;DHT22;11117;48.644;9.006;2022-09-28T08:44:01;10.30;99.90
21906;DHT22;11117;48.644;9.006;2022-09-28T08:46:36;10.40;99.90
21906;DHT22;11117;48.644;9.006;2022-09-28T08:51:59;10.50;99.90
21906;DHT22;11117;48.644;9.006;2022-09-28T08:54:46;10.70;99.90
21906;DHT22;11117;48.644;9.006;2022-09-28T08:57:28;10.60;99.90
21906;DHT22;11117;48.644;9.006;2022-09-28T08:59:58;10.60;99.90
21906;DHT22;11117;48.644;9.006;2022-09-28T09:02:27;10.80;99.90
21906;DHT22;11117;48.644;9.006;2022-09-28T09:04:54;10.70;99.90
21906;DHT22;11117;48.644;9.006;2022-09-28T09:10:51;10.70;99.90
21906;DHT22;11117;48.644;9.006;2022-09-28T09:13:41;10.90;99.90
21906;DHT22;11117;48.644;9.006;2022-09-28T09:16:23;11.00;99.90
21906;DHT22;11117;48.644;9.006;2022-09-28T09:19:15;11.00;99.90
21906;DHT22;11117;48.644;9.006;2022-09-28T09:22:01;11.00;99.90
21906;DHT22;11117;48.644;9.006;2022-09-28T09:24:48;11.20;99.90
21906;DHT22;11117;48.644;9.006;2022-09-28T09:30:15;11.40;99.90
21906;DHT22;11117;48.644;9.006;2022-09-28T09:41:04;11.70;99.90
21906;DHT22;11117;48.644;9.006;2022-09-28T09:46:30;12.40;99.90
21906;DHT22;11117;48.644;9.006;2022-09-28T09:49:05;12.60;99.90
21906;DHT22;11117;48.644;9.006;2022-09-28T09:51:39;12.50;99.90
21906;DHT22;11117;48.644;9.006;2022-09-28T09:54:23;12.40;99.90
21906;DHT22;11117;48.644;9.006;2022-09-28T09:57:04;12.50;99.90
21906;DHT22;11117;48.644;9.006;2022-09-28T09:59:35;12.80;99.90
21906;DHT22;11117;48.644;9.006;2022-09-28T10:02:23;12.40;99.90
21906;DHT22;11117;48.644;9.006;2022-09-28T10:04:52;12.70;99.90
21906;DHT22;11117;48.644;9.006;2022-09-28T10:07:35;12.70;99.90
21906;DHT22;11117;48.644;9.006;2022-09-28T10:10:09;12.50;99.90
21906;DHT22;11117;48.644;9.006;2022-09-28T10:12:35;12.30;99.90
21906;DHT22;11117;48.644;9.006;2022-09-28T10:15:02;12.40;99.90
21906;DHT22;11117;48.644;9.006;2022-09-28T10:17:28;12.30;99.90
21906;DHT22;11117;48.644;9.006;2022-09-28T10:19:54;12.10;99.90
21906;DHT22;11117;48.644;9.006;2022-09-28T10:22:23;12.20;99.90
21906;DHT22;11117;48.644;9.006;2022-09-28T10:24:51;12.00;99.90
21906;DHT22;11117;48.644;9.006;2022-09-28T10:27:23;12.10;99.90
21906;DHT22;11117;48.644;9.006;2022-09-28T10:29:53;12.20;99.90
21906;DHT22;11117;48.644;9.006;2022-09-28T10:32:21;12.30;99.90
21906;DHT22;11117;48.644;9.006;2022-09-28T10:34:47;12.40;99.90
21906;DHT22;11117;48.644;9.006;2022-09-28T10:37:14;12.50;99.90
21906;DHT22;11117;48.644;9.006;2022-09-28T10:39:51;12.40;99.90
21906;DHT22;11117;48.644;9.006;2022-09-28T10:42:20;12.80;99.90
21906;DHT22;11117;48.644;9.006;2022-09-28T10:44:56;12.90;99.90
21906;DHT22;11117;48.644;9.006;2022-09-28T10:47:25;12.80;99.90
21906;DHT22;11117;48.644;9.006;2022-09-28T10:49:55;13.00;99.90
21906;DHT22;11117;48.644;9.006;2022-09-28T10:52:33;13.00;99.90
21906;DHT22;11117;48.644;9.006;2022-09-28T10:54:59;13.30;99.90
21906;DHT22;11117;48.644;9.006;2022-09-28T10:57:29;13.80;99.90
21906;DHT22;11117;48.644;9.006;2022-09-28T10:59:57;13.80;99.90
21906;DHT22;11117;48.644;9.006;2022-09-28T11:02:26;13.60;99.90
21906;DHT22;11117;48.644;9.006;2022-09-28T11:04:57;13.70;99.90
21906;DHT22;11117;48.644;9.006;2022-09-28T11:07:26;13.40;99.90
21906;DHT22;11117;48.644;9.006;2022-09-28T11:09:53;12.90;99.90
21906;DHT22;11117;48.644;9.006;2022-09-28T11:12:37;12.50;99.90
21906;DHT22;11117;48.644;9.006;2022-09-28T11:15:19;12.50;99.90
21906;DHT22;11117;48.644;9.006;2022-09-28T11:17:45;12.70;99.90
21906;DHT22;11117;48.644;9.006;2022-09-28T11:25:33;13.30;99.90
21906;DHT22;11117;48.644;9.006;2022-09-28T11:28:01;13.40;99.90
21906;DHT22;11117;48.644;9.006;2022-09-28T11:30:37;13.50;99.90
21906;DHT22;11117;48.644;9.006;2022-09-28T11:33:09;13.70;99.90
21906;DHT22;11117;48.644;9.006;2022-09-28T11:38:35;13.50;99.90
21906;DHT22;11117;48.644;9.006;2022-09-28T11:44:01;13.20;99.90
21906;DHT22;11117;48.644;9.006;2022-09-28T11:46:43;13.10;99.90
21906;DHT22;11117;48.644;9.006;2022-09-28T11:49:26;13.00;99.90
21906;DHT22;11117;48.644;9.006;2022-09-28T11:51:58;13.00;99.90
21906;DHT22;11117;48.644;9.006;2022-09-28T11:54:44;13.10;99.90
21906;DHT22;11117;48.644;9.006;2022-09-28T11:57:17;13.40;99.90
21906;DHT22;11117;48.644;9.006;2022-09-28T11:59:53;13.40;99.90
21906;DHT22;11117;48.644;9.006;2022-09-28T12:02:29;13.50;99.90
21906;DHT22;11117;48.644;9.006;2022-09-28T12:07:57;13.50;99.90
21906;DHT22;11117;48.644;9.006;2022-09-28T12:11:00;13.50;99.90
21906;DHT22;11117;48.644;9.006;2022-09-28T12:13:37;13.70;99.90
21906;DHT22;11117;48.644;9.006;2022-09-28T12:16:26;13.80;99.90
21906;DHT22;11117;48.644;9.006;2022-09-28T12:21:48;13.60;99.90
21906;DHT22;11117;48.644;9.006;2022-09-28T12:24:30;13.40;99.90
21906;DHT22;11117;48.644;9.006;2022-09-28T12:30:00;13.10;99.90
21906;DHT22;11117;48.644;9.006;2022-09-28T12:33:00;13.10;99.90
21906;DHT22;11117;48.644;9.006;2022-09-28T12:44:19;13.10;99.90
21906;DHT22;11117;48.644;9.006;2022-09-28T12:55:40;13.20;99.90
21906;DHT22;11117;48.644;9.006;2022-09-28T12:58:36;13.40;99.90
21906;DHT22;11117;48.644;9.006;2022-09-28T13:01:49;13.60;99.90
21906;DHT22;11117;48.644;9.006;2022-09-28T13:10:14;13.60;99.90
21906;DHT22;11117;48.644;9.006;2022-09-28T13:21:20;13.00;99.90
21906;DHT22;11117;48.644;9.006;2022-09-28T13:23:47;13.20;99.90
21906;DHT22;11117;48.644;9.006;2022-09-28T13:26:24;13.60;99.90
21906;DHT22;11117;48.644;9.006;2022-09-28T13:28:51;13.80;99.90
21906;DHT22;11117;48.644;9.006;2022-09-28T13:31:21;13.90;99.90
21906;DHT22;11117;48.644;9.006;2022-09-28T13:33:49;13.90;99.90
21906;DHT22;11117;48.644;9.006;2022-09-28T13:38:50;14.20;99.90
21906;DHT22;11117;48.644;9.006;2022-09-28T13:44:10;14.40;99.90
21906;DHT22;11117;48.644;9.006;2022-09-28T13:47:01;14.50;99.90
21906;DHT22;11117;48.644;9.006;2022-09-28T13:57:54;13.80;98.20
21906;DHT22;11117;48.644;9.006;2022-09-28T14:00:51;13.50;99.10
21906;DHT22;11117;48.644;9.006;2022-09-28T14:06:21;13.80;99.80
21906;DHT22;11117;48.644;9.006;2022-09-28T14:09:24;13.60;99.10
21906;DHT22;11117;48.644;9.006;2022-09-28T14:11:55;13.90;99.20
21906;DHT22;11117;48.644;9.006;2022-09-28T14:14:48;14.10;99.00
21906;DHT22;11117;48.644;9.006;2022-09-28T14:25:30;14.10;98.20
21906;DHT22;11117;48.644;9.006;2022-09-28T14:35:54;13.80;97.70
21906;DHT22;11117;48.644;9.006;2022-09-28T14:38:27;13.80;98.60
21906;DHT22;11117;48.644;9.006;2022-09-28T14:40:59;13.90;98.50
21906;DHT22;11117;48.644;9.006;2022-09-28T14:43:34;14.10;99.10
21906;DHT22;11117;48.644;9.006;2022-09-28T14:46:25;14.20;98.80
21906;DHT22;11117;48.644;9.006;2022-09-28T14:56:54;14.20;97.90
21906;DHT22;11117;48.644;9.006;2022-09-28T15:01:57;13.80;98.70
21906;DHT22;11117;48.644;9.006;2022-09-28T15:04:27;13.70;98.30
21906;DHT22;11117;48.644;9.006;2022-09-28T15:06:53;13.60;98.70
21906;DHT22;11117;48.644;9.006;2022-09-28T15:12:04;13.80;99.40
21906;DHT22;11117;48.644;9.006;2022-09-28T15:14:34;13.80;98.20
21906;DHT22;11117;48.644;9.006;2022-09-28T15:17:10;13.90;98.70
21906;DHT22;11117;48.644;9.006;2022-09-28T15:20:05;14.00;98.60
21906;DHT22;11117;48.644;9.006;2022-09-28T15:26:00;14.10;99.60
21906;DHT22;11117;48.644;9.006;2022-09-28T15:28:26;14.30;99.60
21906;DHT22;11117;48.644;9.006;2022-09-28T15:31:02;14.20;99.00
21906;DHT22;11117;48.644;9.006;2022-09-28T15:33:30;14.20;99.50
21906;DHT22;11117;48.644;9.006;2022-09-28T15:36:03;14.20;99.50
21906;DHT22;11117;48.644;9.006;2022-09-28T15:38:30;14.30;99.80
21906;DHT22;11117;48.644;9.006;2022-09-28T15:40:56;14.10;99.20
21906;DHT22;11117;48.644;9.006;2022-09-28T15:43:26;14.10;99.90
21906;DHT22;11117;48.644;9.006;2022-09-28T15:46:06;14.10;99.90
21906;DHT22;11117;48.644;9.006;2022-09-28T15:51:06;14.10;99.80
21906;DHT22;11117;48.644;9.006;2022-09-28T15:53:32;14.10;99.90
21906;DHT22;11117;48.644;9.006;2022-09-28T15:56:02;14.00;99.80
21906;DHT22;11117;48.644;9.006;2022-09-28T15:58:28;13.90;99.90
21906;DHT22;11117;48.644;9.006;2022-09-28T16:03:44;13.90;99.90
21906;DHT22;11117;48.644;9.006;2022-09-28T16:06:10;13.80;99.90
21906;DHT22;11117;48.644;9.006;2022-09-28T16:11:40;13.80;99.90
21906;DHT22;11117;48.644;9.006;2022-09-28T16:14:02;13.80;99.90
21906;DHT22;11117;48.644;9.006;2022-09-28T16:16:35;13.80;99.90
21906;DHT22;11117;48.644;9.006;2022-09-28T16:19:02;13.70;99.90
21906;DHT22;11117;48.644;9.006;2022-09-28T16:21:44;13.60;99.90
21906;DHT22;11117;48.644;9.006;2022-09-28T16:24:21;13.50;99.90
21906;DHT22;11117;48.644;9.006;2022-09-28T16:26:47;13.40;99.90
21906;DHT22;11117;48.644;9.006;2022-09-28T16:29:34;13.30;99.90
21906;DHT22;11117;48.644;9.006;2022-09-28T16:32:30;13.20;99.90
21906;DHT22;11117;48.644;9.006;2022-09-28T16:37:36;13.10;99.90
21906;DHT22;11117;48.644;9.006;2022-09-28T16:40:02;13.00;99.90
21906;DHT22;11117;48.644;9.006;2022-09-28T16:42:28;12.90;99.90
21906;DHT22;11117;48.644;9.006;2022-09-28T16:44:54;12.80;99.90
21906;DHT22;11117;48.644;9.006;2022-09-28T16:47:20;12.70;99.90
21906;DHT22;11117;48.644;9.006;2022-09-28T16:49:47;12.70;99.90
21906;DHT22;11117;48.644;9.006;2022-09-28T16:52:15;12.60;99.90
21906;DHT22;11117;48.644;9.006;2022-09-28T16:54:41;12.50;99.90
21906;DHT22;11117;48.644;9.006;2022-09-28T16:57:10;12.30;99.90
21906;DHT22;11117;48.644;9.006;2022-09-28T16:59:36;12.20;99.90
21906;DHT22;11117;48.644;9.006;2022-09-28T17:02:01;11.90;99.90
21906;DHT22;11117;48.644;9.006;2022-09-28T17:04:27;11.70;99.90
21906;DHT22;11117;48.644;9.006;2022-09-28T17:06:54;11.50;99.90
21906;DHT22;11117;48.644;9.006;2022-09-28T17:09:21;11.40;99.90
21906;DHT22;11117;48.644;9.006;2022-09-28T17:11:47;11.30;99.90
21906;DHT22;11117;48.644;9.006;2022-09-28T17:14:13;11.20;99.90
21906;DHT22;11117;48.644;9.006;2022-09-28T17:16:39;11.10;99.90
21906;DHT22;11117;48.644;9.006;2022-09-28T17:19:24;11.00;99.90
21906;DHT22;11117;48.644;9.006;2022-09-28T17:21:51;11.00;99.90
21906;DHT22;11117;48.644;9.006;2022-09-28T17:24:17;10.90;99.90
21906;DHT22;11117;48.644;9.006;2022-09-28T17:26:44;10.90;99.90
21906;DHT22;11117;48.644;9.006;2022-09-28T17:29:13;10.90;99.90
21906;DHT22;11117;48.644;9.006;2022-09-28T17:31:41;10.80;99.90
21906;DHT22;11117;48.644;9.006;2022-09-28T17:34:07;10.60;99.90
21906;DHT22;11117;48.644;9.006;2022-09-28T17:36:32;10.60;99.90
21906;DHT22;11117;48.644;9.006;2022-09-28T17:38:58;10.50;99.90
21906;DHT22;11117;48.644;9.006;2022-09-28T17:41:24;10.50;99.90
21906;DHT22;11117;48.644;9.006;2022-09-28T17:43:50;10.40;99.90
21906;DHT22;11117;48.644;9.006;2022-09-28T17:48:47;10.20;99.90
21906;DHT22;11117;48.644;9.006;2022-09-28T17:51:13;10.10;99.90
21906;DHT22;11117;48.644;9.006;2022-09-28T17:53:39;10.10;99.90
21906;DHT22;11117;48.644;9.006;2022-09-28T17:56:04;10.00;99.90
21906;DHT22;11117;48.644;9.006;2022-09-28T17:58:30;10.00;99.90
21906;DHT22;11117;48.644;9.006;2022-09-28T18:00:56;9.90;99.90
21906;DHT22;11117;48.644;9.006;2022-09-28T18:03:24;9.90;99.90
21906;DHT22;11117;48.644;9.006;2022-09-28T18:06:01;9.80;99.90
21906;DHT22;11117;48.644;9.006;2022-09-28T18:08:27;9.70;99.90
21906;DHT22;11117;48.644;9.006;2022-09-28T18:10:52;9.60;99.90
21906;DHT22;11117;48.644;9.006;2022-09-28T18:13:18;9.60;99.90
21906;DHT22;11117;48.644;9.006;2022-09-28T18:15:43;9.50;99.90
21906;DHT22;11117;48.644;9.006;2022-09-28T18:18:09;9.40;99.90
21906;DHT22;11117;48.644;9.006;2022-09-28T18:20:35;9.30;99.90
21906;DHT22;11117;48.644;9.006;2022-09-28T18:23:01;9.30;99.90
21906;DHT22;11117;48.644;9.006;2022-09-28T18:25:27;9.20;99.90
21906;DHT22;11117;48.644;9.006;2022-09-28T18:27:53;9.20;99.90
21906;DHT22;11117;48.644;9.006;2022-09-28T18:30:18;9.10;99.90
21906;DHT22;11117;48.644;9.006;2022-09-28T18:32:44;9.10;99.90
21906;DHT22;11117;48.644;9.006;2022-09-28T18:35:15;9.10;99.90
21906;DHT22;11117;48.644;9.006;2022-09-28T18:37:41;9.00;99.90
21906;DHT22;11117;48.644;9.006;2022-09-28T18:40:09;9.00;99.90
21906;DHT22;11117;48.644;9.006;2022-09-28T18:42:35;9.00;99.90
21906;DHT22;11117;48.644;9.006;2022-09-28T18:45:05;9.00;99.90
21906;DHT22;11117;48.644;9.006;2022-09-28T18:47:31;8.90;99.90
21906;DHT22;11117;48.644;9.006;2022-09-28T18:49:57;9.00;99.90
21906;DHT22;11117;48.644;9.006;2022-09-28T18:52:22;8.90;99.90
21906;DHT22;11117;48.644;9.006;2022-09-28T18:54:48;8.80;99.90
21906;DHT22;11117;48.644;9.006;2022-09-28T18:57:13;8.80;99.90
21906;DHT22;11117;48.644;9.006;2022-09-28T18:59:39;8.80;99.90
21906;DHT22;11117;48.644;9.006;2022-09-28T19:02:04;8.70;99.90
21906;DHT22;11117;48.644;9.006;2022-09-28T19:04:31;8.60;99.90
21906;DHT22;11117;48.644;9.006;2022-09-28T19:06:56;8.60;99.90
21906;DHT22;11117;48.644;9.006;2022-09-28T19:09:22;8.60;99.90